createdAt,value
2018-03-24T00:00:28.852Z,6.00
2018-03-24T00:02:55.118Z,6.00
2018-03-24T00:05:21.158Z,6.00
2018-03-24T00:07:48.151Z,6.00
2018-03-24T00:10:14.221Z,6.00
2018-03-24T00:12:40.262Z,5.90
2018-03-24T00:15:07.704Z,6.10
2018-03-24T00:17:33.776Z,6.10
2018-03-24T00:19:59.785Z,6.20
2018-03-24T00:22:26.632Z,6.20
2018-03-24T00:24:52.647Z,6.20
2018-03-24T00:27:19.578Z,6.00
2018-03-24T00:29:46.366Z,5.90
2018-03-24T00:32:12.366Z,5.90
2018-03-24T00:34:38.654Z,5.80
2018-03-24T00:37:04.640Z,5.80
2018-03-24T00:39:30.807Z,5.80
2018-03-24T00:41:56.808Z,5.80
2018-03-24T00:44:22.768Z,5.80
2018-03-24T00:46:48.768Z,5.70
2018-03-24T00:49:14.779Z,5.70
2018-03-24T00:51:40.803Z,5.70
2018-03-24T00:54:06.781Z,5.60
2018-03-24T00:56:32.791Z,5.70
2018-03-24T00:58:59.549Z,5.70
2018-03-24T01:01:25.551Z,5.70
2018-03-24T01:03:51.567Z,5.60
2018-03-24T01:06:17.552Z,5.60
2018-03-24T01:08:43.570Z,5.50
2018-03-24T01:11:09.531Z,5.40
2018-03-24T01:13:35.650Z,5.30
2018-03-24T01:16:01.740Z,5.30
2018-03-24T01:18:27.702Z,5.20
2018-03-24T01:20:53.665Z,5.10
2018-03-24T01:23:19.683Z,5.10
2018-03-24T01:25:45.653Z,5.10
2018-03-24T01:28:11.760Z,5.10
2018-03-24T01:30:37.756Z,5.00
2018-03-24T01:33:03.744Z,4.90
2018-03-24T01:35:29.712Z,4.80
2018-03-24T01:37:55.686Z,4.70
2018-03-24T01:40:21.641Z,4.70
2018-03-24T01:42:47.729Z,4.70
2018-03-24T01:45:13.666Z,4.70
2018-03-24T01:47:40.400Z,4.60
2018-03-24T01:50:06.324Z,4.60
2018-03-24T01:52:33.064Z,4.60
2018-03-24T01:54:59.018Z,4.60
2018-03-24T01:57:24.969Z,4.60
2018-03-24T01:59:50.976Z,4.50
2018-03-24T02:02:16.938Z,4.50
2018-03-24T02:04:42.923Z,4.40
2018-03-24T02:07:08.857Z,4.40
2018-03-24T02:09:34.834Z,4.50
2018-03-24T02:12:00.800Z,4.50
2018-03-24T02:14:26.888Z,4.40
2018-03-24T02:16:52.854Z,4.50
2018-03-24T02:19:18.792Z,4.50
2018-03-24T02:21:44.781Z,4.50
2018-03-24T02:24:10.729Z,4.50
2018-03-24T02:26:36.720Z,4.50
2018-03-24T02:29:02.664Z,4.50
2018-03-24T02:31:28.758Z,4.50
2018-03-24T02:33:54.698Z,4.50
2018-03-24T02:36:20.677Z,4.50
2018-03-24T02:38:46.638Z,4.50
2018-03-24T02:41:12.642Z,4.50
2018-03-24T02:43:38.656Z,4.40
2018-03-24T02:46:04.822Z,4.40
2018-03-24T02:48:30.686Z,4.30
2018-03-24T02:50:57.376Z,4.30
2018-03-24T02:53:23.341Z,4.30
2018-03-24T02:55:49.297Z,4.20
2018-03-24T02:58:15.272Z,4.20
2018-03-24T03:00:41.230Z,4.20
2018-03-24T03:03:07.184Z,4.10
2018-03-24T03:05:33.291Z,4.10
2018-03-24T03:07:59.229Z,4.00
2018-03-24T03:10:25.200Z,4.10
2018-03-24T03:12:51.906Z,4.00
2018-03-24T03:15:18.092Z,4.00
2018-03-24T03:17:44.051Z,3.90
2018-03-24T03:20:09.992Z,3.90
2018-03-24T03:22:36.132Z,3.80
2018-03-24T03:25:02.088Z,3.80
2018-03-24T03:27:28.077Z,3.80
2018-03-24T03:29:54.025Z,3.70
2018-03-24T03:32:20.006Z,3.70
2018-03-24T03:34:45.945Z,3.60
2018-03-24T03:37:12.845Z,3.50
2018-03-24T03:39:38.854Z,3.50
2018-03-24T03:42:05.532Z,3.50
2018-03-24T03:44:31.477Z,3.50
2018-03-24T03:46:58.204Z,3.50
2018-03-24T03:49:24.144Z,3.50
2018-03-24T03:51:50.977Z,3.30
2018-03-24T03:54:17.664Z,3.30
2018-03-24T03:56:43.640Z,3.20
2018-03-24T03:59:10.343Z,3.30
2018-03-24T04:01:36.288Z,3.20
2018-03-24T04:04:02.261Z,3.20
2018-03-24T04:06:28.215Z,3.10
2018-03-24T04:08:54.211Z,3.10
2018-03-24T04:11:20.157Z,3.10
2018-03-24T04:13:46.113Z,3.20
2018-03-24T04:16:12.840Z,3.10
2018-03-24T04:18:38.796Z,3.10
2018-03-24T04:21:04.792Z,3.10
2018-03-24T04:23:31.477Z,3.00
2018-03-24T04:25:57.548Z,3.10
2018-03-24T04:28:23.504Z,3.10
2018-03-24T04:30:49.468Z,3.00
2018-03-24T04:33:15.429Z,3.00
2018-03-24T04:35:42.143Z,3.00
2018-03-24T04:38:08.085Z,3.00
2018-03-24T04:40:34.184Z,3.00
2018-03-24T04:43:00.132Z,3.00
2018-03-24T04:45:26.845Z,2.90
2018-03-24T04:47:52.803Z,2.90
2018-03-24T04:50:19.504Z,2.90
2018-03-24T04:52:45.496Z,2.90
2018-03-24T04:55:11.565Z,2.90
2018-03-24T04:57:38.279Z,2.80
2018-03-24T05:00:04.249Z,2.80
2018-03-24T05:02:30.931Z,2.80
2018-03-24T05:04:56.859Z,2.80
2018-03-24T05:07:22.825Z,2.80
2018-03-24T05:09:49.507Z,2.90
2018-03-24T05:12:15.585Z,2.90
2018-03-24T05:14:42.404Z,2.90
2018-03-24T05:17:08.372Z,2.90
2018-03-24T05:19:34.303Z,2.90
2018-03-24T05:22:00.264Z,2.80
2018-03-24T05:24:26.200Z,2.80
2018-03-24T05:26:53.048Z,2.80
2018-03-24T05:29:18.989Z,2.80
2018-03-24T05:31:44.934Z,2.70
2018-03-24T05:34:10.947Z,2.70
2018-03-24T05:36:36.914Z,2.80
2018-03-24T05:39:02.936Z,2.70
2018-03-24T05:41:28.849Z,2.70
2018-03-24T05:43:54.837Z,2.70
2018-03-24T05:46:20.759Z,2.70
2018-03-24T05:48:46.738Z,2.70
2018-03-24T05:51:12.712Z,2.70
2018-03-24T05:53:38.658Z,2.70
2018-03-24T05:56:04.652Z,2.70
2018-03-24T05:58:30.597Z,2.80
2018-03-24T06:00:56.683Z,2.80
2018-03-24T06:03:22.615Z,2.80
2018-03-24T06:05:48.585Z,2.80
2018-03-24T06:08:14.516Z,2.80
2018-03-24T06:10:40.496Z,2.90
2018-03-24T06:13:06.435Z,2.90
2018-03-24T06:15:32.659Z,2.90
2018-03-24T06:17:58.624Z,2.90
2018-03-24T06:20:25.299Z,2.90
2018-03-24T06:22:51.268Z,2.90
2018-03-24T06:25:17.203Z,2.80
2018-03-24T06:27:43.916Z,2.90
2018-03-24T06:30:09.863Z,2.90
2018-03-24T06:32:36.689Z,2.60
2018-03-24T06:35:02.614Z,2.60
2018-03-24T06:37:28.564Z,2.50
2018-03-24T06:39:55.256Z,2.50
2018-03-24T06:42:21.220Z,2.50
2018-03-24T06:44:47.952Z,2.70
2018-03-24T06:47:13.899Z,2.70
2018-03-24T06:49:39.844Z,2.80
2018-03-24T06:52:05.877Z,2.80
2018-03-24T06:54:31.808Z,2.90
2018-03-24T06:56:57.738Z,2.90
2018-03-24T06:59:23.748Z,3.00
2018-03-24T07:01:49.693Z,3.10
2018-03-24T07:04:15.676Z,2.90
2018-03-24T07:06:41.622Z,2.90
2018-03-24T07:09:07.720Z,2.90
2018-03-24T07:11:34.387Z,3.00
2018-03-24T07:14:00.510Z,3.00
2018-03-24T07:16:26.469Z,3.20
2018-03-24T07:18:52.602Z,3.10
2018-03-24T07:21:18.589Z,3.20
2018-03-24T07:23:44.480Z,3.20
2018-03-24T07:26:10.469Z,3.30
2018-03-24T07:28:37.152Z,3.30
2018-03-24T07:31:03.119Z,3.30
2018-03-24T07:33:29.818Z,3.50
2018-03-24T07:35:55.837Z,3.50
2018-03-24T07:38:21.802Z,3.60
2018-03-24T07:40:48.536Z,3.80
2018-03-24T07:43:15.228Z,3.80
2018-03-24T07:45:41.181Z,3.80
2018-03-24T07:48:07.149Z,3.80
2018-03-24T07:50:33.084Z,3.80
2018-03-24T07:52:59.204Z,3.90
2018-03-24T07:55:25.150Z,4.00
2018-03-24T07:57:51.126Z,4.00
2018-03-24T08:00:17.813Z,4.20
2018-03-24T08:02:43.751Z,4.30
2018-03-24T08:05:09.724Z,4.40
2018-03-24T08:07:35.665Z,4.40
2018-03-24T08:10:01.766Z,4.50
2018-03-24T08:12:27.737Z,4.50
2018-03-24T08:14:53.984Z,4.60
2018-03-24T08:17:19.930Z,4.70
2018-03-24T08:19:45.920Z,4.80
2018-03-24T08:22:11.876Z,4.90
2018-03-24T08:24:37.876Z,5.00
2018-03-24T08:27:04.609Z,5.30
2018-03-24T08:29:30.732Z,5.20
2018-03-24T08:31:56.700Z,5.40
2018-03-24T08:34:22.674Z,5.40
2018-03-24T08:36:48.664Z,5.50
2018-03-24T08:39:14.620Z,5.60
2018-03-24T08:41:40.591Z,5.70
2018-03-24T08:44:06.539Z,5.90
2018-03-24T08:46:32.656Z,5.90
2018-03-24T08:48:58.606Z,6.10
2018-03-24T08:51:24.586Z,6.10
2018-03-24T08:53:50.593Z,6.30
2018-03-24T08:56:16.635Z,6.50
2018-03-24T08:58:43.309Z,6.70
2018-03-24T09:01:09.390Z,6.70
2018-03-24T09:03:35.333Z,6.90
2018-03-24T09:06:01.322Z,7.00
2018-03-24T09:08:27.281Z,7.10
2018-03-24T09:10:53.275Z,7.40
2018-03-24T09:13:19.232Z,7.60
2018-03-24T09:15:45.303Z,7.80
2018-03-24T09:18:11.423Z,8.10
2018-03-24T09:20:37.396Z,8.60
2018-03-24T09:23:03.374Z,9.20
2018-03-24T09:25:30.062Z,9.80
2018-03-24T09:27:56.049Z,9.80
2018-03-24T09:30:22.031Z,10.10
2018-03-24T09:32:48.132Z,10.20
2018-03-24T09:35:14.103Z,10.30
2018-03-24T09:37:40.054Z,10.20
2018-03-24T09:40:06.051Z,10.30
2018-03-24T09:42:32.724Z,10.10
2018-03-24T09:44:58.709Z,10.00
2018-03-24T09:47:25.433Z,10.10
2018-03-24T09:49:51.526Z,10.10
2018-03-24T09:52:17.480Z,10.00
2018-03-24T09:54:44.182Z,9.90
2018-03-24T09:57:10.124Z,9.90
2018-03-24T09:59:36.086Z,9.80
2018-03-24T10:02:02.053Z,9.70
2018-03-24T10:04:28.010Z,9.70
2018-03-24T10:06:54.856Z,9.60
2018-03-24T10:09:21.575Z,9.50
2018-03-24T10:11:47.523Z,9.50
2018-03-24T10:14:14.364Z,9.20
2018-03-24T10:16:41.061Z,9.30
2018-03-24T10:19:07.010Z,9.30
2018-03-24T10:21:32.965Z,9.40
2018-03-24T10:23:59.082Z,9.30
2018-03-24T10:26:25.071Z,9.40
2018-03-24T10:28:51.065Z,9.40
2018-03-24T10:31:17.012Z,9.50
2018-03-24T10:33:42.980Z,9.60
2018-03-24T10:36:08.968Z,9.70
2018-03-24T10:38:34.916Z,9.80
2018-03-24T10:41:01.026Z,9.90
2018-03-24T10:43:27.706Z,9.90
2018-03-24T10:45:53.681Z,10.00
2018-03-24T10:48:19.625Z,10.00
2018-03-24T10:50:46.321Z,10.20
2018-03-24T10:53:12.298Z,10.10
2018-03-24T10:55:38.388Z,10.20
2018-03-24T10:58:04.361Z,10.30
2018-03-24T11:00:30.320Z,10.50
2018-03-24T11:02:56.297Z,10.60
2018-03-24T11:05:22.253Z,10.70
2018-03-24T11:07:48.252Z,10.80
2018-03-24T11:10:14.177Z,10.90
2018-03-24T11:12:40.253Z,11.00
2018-03-24T11:15:06.330Z,11.20
2018-03-24T11:17:32.309Z,11.20
2018-03-24T11:19:59.015Z,11.50
2018-03-24T11:22:24.965Z,11.50
2018-03-24T11:24:51.701Z,11.60
2018-03-24T11:27:18.412Z,11.60
2018-03-24T11:29:44.508Z,11.60
2018-03-24T11:32:10.449Z,11.50
2018-03-24T11:34:37.327Z,11.60
2018-03-24T11:37:04.017Z,11.80
2018-03-24T11:39:29.967Z,11.80
2018-03-24T11:41:56.066Z,12.00
2018-03-24T11:44:22.061Z,12.20
2018-03-24T11:46:48.026Z,12.10
2018-03-24T11:49:13.984Z,12.20
2018-03-24T11:51:40.696Z,12.30
2018-03-24T11:54:06.705Z,12.30
2018-03-24T11:56:32.733Z,12.30
2018-03-24T11:58:58.720Z,12.40
2018-03-24T12:01:32.724Z,12.50
2018-03-24T12:04:06.224Z,12.60
2018-03-24T12:06:39.968Z,12.60
2018-03-24T12:09:13.828Z,12.50
2018-03-24T12:11:47.377Z,12.70
2018-03-24T12:14:24.951Z,12.70
2018-03-24T12:16:50.952Z,12.90
2018-03-24T12:19:16.939Z,12.90
2018-03-24T12:21:42.926Z,13.00
2018-03-24T12:24:08.918Z,13.10
2018-03-24T12:26:35.036Z,13.20
2018-03-24T12:29:00.998Z,13.40
2018-03-24T12:31:27.025Z,13.30
2018-03-24T12:33:52.976Z,13.30
2018-03-24T12:36:19.834Z,13.50
2018-03-24T12:38:48.169Z,13.70
2018-03-24T12:41:16.219Z,13.70
2018-03-24T12:43:42.721Z,13.90
2018-03-24T12:46:09.055Z,13.90
2018-03-24T12:48:36.020Z,13.80
2018-03-24T12:51:03.702Z,13.80
2018-03-24T14:01:32.882Z,15.00
2018-03-24T14:03:58.826Z,14.90
2018-03-24T14:06:25.536Z,15.00
2018-03-24T14:08:51.501Z,14.90
2018-03-24T14:11:17.517Z,14.90
2018-03-24T14:13:43.508Z,14.90
2018-03-24T14:16:09.532Z,15.00
2018-03-24T14:18:35.503Z,14.90
2018-03-24T14:21:01.450Z,14.90
2018-03-24T14:23:27.458Z,14.90
2018-03-24T14:25:53.410Z,14.70
2018-03-24T14:28:19.504Z,14.90
2018-03-24T14:30:45.448Z,14.90
2018-03-24T14:33:11.424Z,15.00
2018-03-24T14:35:38.181Z,15.40
2018-03-24T14:38:04.164Z,15.40
2018-03-24T14:40:31.232Z,15.60
2018-03-24T14:42:58.072Z,15.50
2018-03-24T14:45:24.762Z,15.50
2018-03-24T14:47:50.764Z,15.40
2018-03-24T14:50:16.714Z,15.40
2018-03-24T14:52:42.681Z,15.50
2018-03-24T14:55:08.737Z,15.60
2018-03-24T14:57:34.847Z,15.50
2018-03-24T15:00:00.891Z,15.50
2018-03-24T15:02:26.788Z,15.70
2018-03-24T15:04:53.893Z,15.70
2018-03-24T15:07:19.871Z,15.70
2018-03-24T15:09:45.872Z,15.50
2018-03-24T15:12:12.960Z,14.90
2018-03-24T15:14:39.212Z,14.90
2018-03-24T15:17:05.181Z,15.10
2018-03-24T15:19:31.219Z,15.00
2018-03-24T15:21:58.304Z,15.20
2018-03-24T15:24:24.260Z,15.20
2018-03-24T15:26:50.976Z,15.00
2018-03-24T15:29:16.947Z,15.00
2018-03-24T15:31:42.880Z,14.90
2018-03-24T15:34:08.886Z,15.00
2018-03-24T15:36:34.880Z,15.10
2018-03-24T15:39:01.592Z,15.00
2018-03-24T15:41:27.574Z,14.90
2018-03-24T15:43:53.537Z,14.90
2018-03-24T15:46:19.621Z,14.80
2018-03-24T15:48:45.568Z,14.80
2018-03-24T15:51:11.577Z,14.80
2018-03-24T15:53:37.512Z,14.90
2018-03-24T15:56:03.531Z,14.90
2018-03-24T15:58:29.512Z,14.70
2018-03-24T16:00:55.502Z,14.70
2018-03-24T16:03:21.453Z,14.60
2018-03-24T16:05:48.313Z,14.40
2018-03-24T16:08:14.265Z,14.40
2018-03-24T16:10:40.213Z,14.40
2018-03-24T16:13:06.214Z,14.30
2018-03-24T16:15:32.352Z,14.20
2018-03-24T16:17:58.450Z,14.20
2018-03-24T16:20:24.434Z,14.30
2018-03-24T16:22:50.465Z,14.30
2018-03-24T16:25:16.480Z,14.30
2018-03-24T16:27:43.171Z,14.10
2018-03-24T16:30:09.171Z,14.10
2018-03-24T16:32:35.296Z,14.20
2018-03-24T16:35:01.284Z,14.20
2018-03-24T16:37:27.986Z,13.90
2018-03-24T16:39:53.936Z,13.90
2018-03-24T16:42:20.029Z,13.90
2018-03-24T16:44:45.977Z,13.70
2018-03-24T16:47:11.933Z,13.80
2018-03-24T16:49:37.960Z,13.60
2018-03-24T16:52:03.949Z,13.50
2018-03-24T16:54:29.910Z,13.20
2018-03-24T16:56:56.022Z,13.00
2018-03-24T16:59:21.981Z,13.00
2018-03-24T17:01:48.006Z,12.80
2018-03-24T17:04:13.980Z,12.60
2018-03-24T17:06:40.686Z,12.60
2018-03-24T17:09:06.692Z,12.50
2018-03-24T17:11:32.652Z,12.50
2018-03-24T17:13:59.653Z,12.20
2018-03-24T17:16:25.609Z,12.20
2018-03-24T17:18:51.549Z,12.00
2018-03-24T17:21:17.520Z,11.90
2018-03-24T17:23:43.468Z,12.00
2018-03-24T17:26:09.447Z,12.00
2018-03-24T17:28:35.420Z,11.90
2018-03-24T17:31:01.627Z,11.80
2018-03-24T17:33:27.587Z,11.70
2018-03-24T17:35:54.320Z,11.50
2018-03-24T17:38:20.260Z,11.50
2018-03-24T17:40:46.240Z,11.50
2018-03-24T17:43:12.195Z,11.40
2018-03-24T17:45:38.180Z,11.50
2018-03-24T17:48:04.360Z,11.40
2018-03-24T17:50:30.300Z,11.40
2018-03-24T17:52:56.298Z,11.20
2018-03-24T17:55:22.250Z,10.90
2018-03-24T17:57:48.208Z,10.60
2018-03-24T18:00:14.149Z,10.40
2018-03-24T18:02:41.021Z,10.10
2018-03-24T18:05:06.972Z,10.00
2018-03-24T18:07:32.948Z,10.00
2018-03-24T18:09:59.659Z,9.90
2018-03-24T18:12:25.639Z,9.80
2018-03-24T18:14:51.732Z,9.80
2018-03-24T18:17:18.464Z,9.70
2018-03-24T18:19:45.307Z,9.50
2018-03-24T18:22:12.018Z,9.50
2018-03-24T18:24:38.043Z,9.50
2018-03-24T18:27:03.995Z,9.40
2018-03-24T18:29:30.742Z,9.10
2018-03-24T18:31:56.696Z,9.10
2018-03-24T18:34:22.813Z,9.10
2018-03-24T18:36:48.776Z,9.00
2018-03-24T18:39:14.898Z,9.00
2018-03-24T18:41:40.856Z,9.10
2018-03-24T18:44:06.831Z,9.10
2018-03-24T18:46:32.813Z,9.00
2018-03-24T18:48:58.943Z,8.90
2018-03-24T18:51:24.891Z,8.70
2018-03-24T18:53:50.870Z,8.70
2018-03-24T18:56:17.593Z,8.60
2018-03-24T18:58:44.335Z,8.50
2018-03-24T19:01:11.097Z,8.40
2018-03-24T19:03:37.078Z,8.40
2018-03-24T19:06:03.030Z,8.40
2018-03-24T19:08:29.933Z,8.40
2018-03-24T19:10:55.927Z,8.40
2018-03-24T19:13:22.045Z,8.40
2018-03-24T19:15:48.157Z,8.50
2018-03-24T19:18:14.149Z,8.50
2018-03-24T19:20:40.149Z,8.50
2018-03-24T19:23:06.188Z,8.40
2018-03-24T19:25:32.131Z,8.40
2018-03-24T19:27:58.865Z,8.30
2018-03-24T19:30:25.732Z,8.30
2018-03-24T19:32:51.748Z,8.30
2018-03-24T19:35:18.448Z,8.10
2018-03-24T19:37:44.484Z,8.00
2018-03-24T19:40:10.431Z,8.10
2018-03-24T19:42:36.416Z,8.10
2018-03-24T19:45:02.415Z,8.00
2018-03-24T19:47:28.469Z,8.00
2018-03-24T19:49:54.489Z,8.00
2018-03-24T19:52:20.544Z,8.00
2018-03-24T19:54:47.253Z,7.90
2018-03-24T19:57:13.421Z,7.90
2018-03-24T19:59:39.415Z,7.80
2018-03-24T20:02:05.423Z,7.80
2018-03-24T20:04:31.504Z,7.70
2018-03-24T20:06:57.516Z,7.70
2018-03-24T20:09:23.517Z,7.80
2018-03-24T20:11:50.252Z,7.70
2018-03-24T20:14:16.421Z,7.70
2018-03-24T20:16:42.384Z,7.60
2018-03-24T20:19:08.425Z,7.60
2018-03-24T20:21:34.402Z,7.50
2018-03-24T20:24:00.420Z,7.40
2018-03-24T20:26:26.388Z,7.30
2018-03-24T20:28:52.389Z,7.20
2018-03-24T20:31:18.355Z,7.20
2018-03-24T20:33:44.510Z,7.10
2018-03-24T20:36:10.538Z,7.00
2018-03-24T20:38:36.993Z,7.00
2018-03-24T20:41:03.016Z,7.00
2018-03-24T20:43:28.996Z,7.00
2018-03-24T20:45:54.995Z,7.00
2018-03-24T20:48:21.746Z,7.00
2018-03-24T20:50:48.532Z,7.00
2018-03-24T20:53:14.577Z,7.00
2018-03-24T20:55:40.634Z,7.00
2018-03-24T20:58:07.319Z,6.90
2018-03-24T21:00:34.180Z,6.90
2018-03-24T21:03:09.210Z,6.90
2018-03-24T21:05:42.185Z,6.80
2018-03-24T21:08:10.847Z,6.80
2018-03-24T21:10:38.183Z,6.70
2018-03-24T21:13:04.701Z,6.70
2018-03-24T21:15:31.166Z,6.70
2018-03-24T21:17:57.169Z,6.70
2018-03-24T21:20:27.809Z,6.70
2018-03-24T21:22:53.780Z,6.70
2018-03-24T21:25:19.740Z,6.70
2018-03-24T21:27:46.429Z,6.70
2018-03-24T21:30:12.549Z,6.60
2018-03-24T21:32:38.517Z,6.60
2018-03-24T21:35:05.248Z,6.60
2018-03-24T21:37:31.172Z,6.60
2018-03-24T21:39:57.149Z,6.50
2018-03-24T21:42:23.109Z,6.50
2018-03-24T21:44:49.265Z,6.50
2018-03-24T21:47:15.962Z,6.50
2018-03-24T21:49:41.957Z,6.60
2018-03-24T21:52:07.909Z,6.60
2018-03-24T21:54:33.902Z,6.60
2018-03-24T21:56:59.907Z,6.70
2018-03-24T21:59:25.860Z,6.80
2018-03-24T22:01:51.966Z,6.80
2018-03-24T22:04:17.914Z,6.80
2018-03-24T22:06:43.916Z,6.80
2018-03-24T22:09:09.860Z,6.80
2018-03-24T22:11:35.844Z,6.80
2018-03-24T22:14:01.971Z,6.80
2018-03-24T22:16:28.156Z,6.70
2018-03-24T22:18:54.052Z,6.50
2018-03-24T22:21:23.632Z,6.50
2018-03-24T22:23:51.241Z,6.30
2018-03-24T22:26:19.164Z,6.30
2018-03-24T22:28:46.721Z,6.20
2018-03-24T22:31:15.243Z,6.20
2018-03-24T22:33:42.266Z,6.20
2018-03-24T22:36:08.270Z,6.20
2018-03-24T22:38:34.247Z,6.10
2018-03-24T22:41:00.200Z,6.00
2018-03-24T22:43:26.177Z,6.00
2018-03-24T22:45:52.164Z,6.00
2018-03-24T22:48:18.239Z,5.90
2018-03-24T22:50:44.205Z,5.90
2018-03-24T22:53:10.202Z,5.80
2018-03-24T22:55:36.909Z,5.80
2018-03-24T22:58:02.885Z,5.80
2018-03-24T23:00:28.828Z,5.80
2018-03-24T23:02:54.945Z,5.90
2018-03-24T23:05:20.916Z,5.90
2018-03-24T23:07:46.896Z,5.90
2018-03-24T23:10:12.848Z,5.90
2018-03-24T23:12:38.849Z,5.90
2018-03-24T23:15:04.958Z,5.80
2018-03-24T23:17:31.054Z,5.90
2018-03-24T23:19:57.048Z,6.00
2018-03-24T23:22:22.982Z,5.90
2018-03-24T23:24:48.967Z,5.90
2018-03-24T23:27:14.921Z,5.90
2018-03-24T23:29:41.637Z,5.80
2018-03-24T23:32:07.579Z,5.80
2018-03-24T23:34:33.689Z,5.80
2018-03-24T23:36:59.624Z,5.60
2018-03-24T23:39:25.714Z,5.60
2018-03-24T23:41:51.566Z,5.60
2018-03-24T23:44:17.559Z,5.50
2018-03-24T23:46:43.515Z,5.50
2018-03-24T23:49:09.640Z,5.40
2018-03-24T23:51:35.614Z,5.20
2018-03-24T23:54:01.554Z,5.20
2018-03-24T23:56:27.543Z,5.00
2018-03-24T23:58:53.503Z,5.00
